Time;durP1;ratioP1;P1;durP2;ratioP2;P2;SDS_P1;SDS_P2;PMS_P1;PMS_P2;Temp;Humidity;BMP_temperature;BMP_pressure;BME280_temperature;BME280_humidity;BME280_pressure;Samples;Min_cycle;Max_cycle;Signal;HPM_P1;HPM_P2
2023/01/30 00:02:12;;;;;;;64.38;33.85;;;5.50;99.90;;;;;;5037307;28;20072;-90
2023/01/30 00:04:38;;;;;;;54.55;31.38;;;5.50;99.90;;;;;;5036126;28;20025;-89
2023/01/30 00:07:03;;;;;;;55.05;31.15;;;5.50;99.90;;;;;;5042342;28;20021;-90
2023/01/30 00:09:29;;;;;;;58.45;32.08;;;5.50;99.90;;;;;;5054728;28;20020;-89
2023/01/30 00:11:54;;;;;;;61.45;34.25;;;5.50;99.90;;;;;;5055280;28;20078;-89
2023/01/30 00:14:20;;;;;;;58.55;32.78;;;5.50;99.90;;;;;;5055408;28;20062;-90
2023/01/30 00:16:45;;;;;;;61.97;35.35;;;5.50;99.90;;;;;;5041159;28;20029;-90
2023/01/30 00:19:11;;;;;;;57.55;31.63;;;5.50;99.90;;;;;;5054802;28;20435;-90
2023/01/30 00:21:36;;;;;;;58.03;30.17;;;5.50;99.90;;;;;;5054887;28;20035;-88
2023/01/30 00:24:02;;;;;;;61.15;34.13;;;5.50;99.90;;;;;;5054626;28;20119;-90
2023/01/30 00:26:28;;;;;;;64.25;35.22;;;5.50;99.90;;;;;;5054631;28;20025;-90
2023/01/30 00:28:53;;;;;;;61.30;34.58;;;5.50;99.90;;;;;;5055314;28;20396;-90
2023/01/30 00:31:19;;;;;;;62.95;34.22;;;5.50;99.90;;;;;;5043538;28;20032;-90
2023/01/30 00:33:44;;;;;;;61.85;33.03;;;5.50;99.90;;;;;;5050864;28;20028;-90
2023/01/30 00:36:10;;;;;;;60.95;35.30;;;5.60;99.90;;;;;;5058147;28;20037;-90
2023/01/30 00:38:36;;;;;;;59.75;34.00;;;5.60;99.90;;;;;;5058785;28;20064;-89
2023/01/30 00:41:01;;;;;;;54.88;31.27;;;5.60;99.90;;;;;;5058760;28;20377;-90
2023/01/30 00:49:17;;;;;;;66.93;34.25;;;5.70;99.90;;;;;;5072117;28;20036;-89
2023/01/30 00:51:43;;;;;;;57.80;33.03;;;5.70;99.90;;;;;;5057745;28;20037;-90
2023/01/30 00:54:08;;;;;;;60.15;32.08;;;5.70;99.90;;;;;;5045302;28;20031;-89
2023/01/30 00:56:34;;;;;;;65.10;35.60;;;5.70;99.90;;;;;;5048082;28;20021;-90
2023/01/30 00:58:59;;;;;;;62.45;33.63;;;5.80;99.90;;;;;;5055039;28;20070;-90
2023/01/30 01:01:25;;;;;;;57.72;33.67;;;5.80;99.90;;;;;;5042825;28;20037;-90
2023/01/30 01:03:50;;;;;;;62.55;35.83;;;5.80;99.90;;;;;;5055904;28;20388;-90
2023/01/30 01:06:16;;;;;;;61.17;35.95;;;5.80;99.90;;;;;;5039334;28;20077;-90
2023/01/30 01:08:41;;;;;;;56.38;34.15;;;5.80;99.90;;;;;;5055065;28;20025;-90
2023/01/30 01:11:07;;;;;;;56.38;33.80;;;5.80;99.90;;;;;;5039099;28;20017;-90
2023/01/30 01:13:33;;;;;;;51.78;31.63;;;5.90;99.90;;;;;;5048802;28;20063;-90
2023/01/30 01:15:58;;;;;;;66.53;34.13;;;5.90;99.90;;;;;;5048370;28;20025;-89
2023/01/30 01:18:24;;;;;;;58.05;33.22;;;5.90;99.90;;;;;;5058324;28;20086;-89
2023/01/30 01:20:50;;;;;;;65.72;35.83;;;5.90;99.90;;;;;;5056072;28;20027;-90
2023/01/30 01:23:15;;;;;;;64.13;34.13;;;5.90;99.90;;;;;;5057643;28;20040;-89
2023/01/30 01:25:41;;;;;;;53.63;33.08;;;5.90;99.90;;;;;;5057366;28;20127;-90
2023/01/30 01:28:06;;;;;;;60.78;33.83;;;5.90;99.90;;;;;;5054655;28;20017;-89
2023/01/30 01:30:32;;;;;;;59.67;34.75;;;5.90;99.90;;;;;;5044935;28;20035;-91
2023/01/30 01:32:57;;;;;;;60.00;33.63;;;5.90;99.90;;;;;;5057640;28;20017;-90
2023/01/30 01:35:23;;;;;;;53.47;32.20;;;6.00;99.90;;;;;;5057492;28;20404;-89
2023/01/30 01:37:53;;;;;;;57.30;34.45;;;6.00;99.90;;;;;;5054961;28;20021;-89
2023/01/30 01:43:18;;;;;;;58.20;31.88;;;6.00;99.90;;;;;;5067153;28;20074;-90
2023/01/30 01:45:45;;;;;;;52.25;32.50;;;6.00;99.90;;;;;;5051268;28;20480;-91
2023/01/30 01:48:17;;;;;;;56.78;34.25;;;6.00;99.90;;;;;;5045644;28;20074;-90
2023/01/30 01:50:48;;;;;;;57.13;33.65;;;6.00;99.90;;;;;;5047028;28;20028;-90
2023/01/30 01:53:18;;;;;;;56.53;33.20;;;6.00;99.90;;;;;;5057792;28;20024;-90
2023/01/30 01:55:47;;;;;;;56.65;33.03;;;6.10;99.90;;;;;;5057450;28;20025;-90
2023/01/30 01:58:22;;;;;;;55.42;34.10;;;6.00;99.90;;;;;;5056440;28;20029;-90
2023/01/30 02:00:48;;;;;;;59.03;34.33;;;6.10;99.90;;;;;;5047813;28;20495;-90
2023/01/30 02:03:18;;;;;;;56.83;32.92;;;6.10;99.90;;;;;;5056791;28;20029;-90
2023/01/30 02:05:48;;;;;;;60.97;34.65;;;6.10;99.90;;;;;;5054083;28;20129;-89
2023/01/30 02:08:19;;;;;;;55.08;31.95;;;6.10;99.90;;;;;;5053072;28;20044;-90
2023/01/30 02:10:58;;;;;;;52.63;33.85;;;6.10;99.90;;;;;;5054271;28;20013;-91
2023/01/30 02:13:25;;;;;;;54.95;32.67;;;6.10;99.90;;;;;;5058313;28;20048;-90
2023/01/30 02:15:51;;;;;;;61.05;33.78;;;6.10;99.90;;;;;;5055868;28;20103;-89
2023/01/30 02:18:17;;;;;;;48.60;29.08;;;6.10;99.90;;;;;;5056411;28;20127;-91
2023/01/30 02:21:48;;;;;;;47.22;31.50;;;6.10;99.90;;;;;;5056846;28;20021;-90
2023/01/30 02:24:19;;;;;;;50.67;30.20;;;6.20;99.90;;;;;;4994813;28;20475;-90
2023/01/30 02:27:13;;;;;;;48.03;30.20;;;6.20;99.90;;;;;;4993315;28;20081;-90
2023/01/30 02:29:51;;;;;;;47.72;28.42;;;6.20;99.90;;;;;;5030823;28;20075;-91
2023/01/30 02:32:16;;;;;;;59.35;29.45;;;6.20;99.90;;;;;;5051063;28;20123;-90
2023/01/30 02:34:56;;;;;;;44.90;27.13;;;6.20;99.90;;;;;;5045382;28;20155;-91
2023/01/30 02:37:49;;;;;;;43.10;25.38;;;6.30;99.90;;;;;;5049100;28;20036;-90
2023/01/30 02:40:26;;;;;;;42.58;24.65;;;6.30;99.90;;;;;;5042625;28;20401;-90
2023/01/30 02:43:00;;;;;;;37.47;24.17;;;6.30;99.90;;;;;;5051032;28;20025;-91
2023/01/30 02:45:52;;;;;;;40.92;24.25;;;6.40;99.90;;;;;;5045346;28;20024;-90
2023/01/30 02:48:55;;;;;;;36.95;23.20;;;6.40;99.90;;;;;;5047426;28;20185;-90
2023/01/30 02:51:27;;;;;;;42.40;22.85;;;6.40;99.90;;;;;;5036197;28;20021;-90
2023/01/30 02:53:53;;;;;;;35.42;21.90;;;6.40;99.90;;;;;;5053137;28;20086;-92
2023/01/30 02:56:18;;;;;;;38.25;20.33;;;6.40;99.90;;;;;;5046739;28;20029;-92
2023/01/30 02:58:59;;;;;;;28.13;17.35;;;6.50;99.90;;;;;;5055526;28;20539;-91
2023/01/30 03:01:44;;;;;;;31.60;15.13;;;6.50;99.90;;;;;;5055707;28;20067;-91
2023/01/30 03:04:30;;;;;;;21.27;13.20;;;6.60;99.90;;;;;;5054587;28;20027;-91
2023/01/30 03:07:14;;;;;;;26.58;14.10;;;6.60;99.90;;;;;;5049051;28;20033;-92
2023/01/30 03:09:56;;;;;;;22.40;14.60;;;6.70;99.90;;;;;;5047226;28;20115;-90
2023/01/30 03:12:37;;;;;;;26.13;13.90;;;6.70;99.90;;;;;;5055898;28;20109;-90
2023/01/30 03:15:37;;;;;;;22.92;12.05;;;6.70;99.90;;;;;;5045690;28;20095;-90
2023/01/30 03:18:03;;;;;;;20.75;11.18;;;6.70;99.90;;;;;;5042924;28;20052;-92
2023/01/30 03:20:30;;;;;;;24.88;13.25;;;6.70;99.90;;;;;;5053760;28;20111;-91
2023/01/30 03:22:55;;;;;;;22.92;13.05;;;6.60;99.90;;;;;;5044819;28;20078;-92
2023/01/30 03:25:25;;;;;;;17.20;10.63;;;6.60;99.90;;;;;;5055189;28;20009;-92
2023/01/30 03:27:53;;;;;;;21.67;12.13;;;6.60;99.90;;;;;;5051007;28;20024;-92
2023/01/30 03:30:19;;;;;;;20.08;11.35;;;6.60;99.90;;;;;;5054848;28;20028;-92
2023/01/30 03:32:44;;;;;;;20.08;12.30;;;6.60;99.90;;;;;;5055905;28;20028;-93
2023/01/30 03:35:10;;;;;;;18.00;10.75;;;6.60;99.90;;;;;;5055588;28;20115;-92
2023/01/30 03:37:36;;;;;;;21.33;11.30;;;6.60;99.90;;;;;;5053145;28;20060;-93
2023/01/30 03:40:02;;;;;;;17.35;10.77;;;6.60;99.90;;;;;;5056091;28;20032;-93
2023/01/30 03:42:28;;;;;;;19.27;11.38;;;6.60;99.90;;;;;;5055695;28;20021;-92
2023/01/30 03:44:53;;;;;;;22.67;10.30;;;6.60;99.90;;;;;;5046255;28;20025;-91
2023/01/30 03:47:19;;;;;;;16.33;11.68;;;6.60;99.90;;;;;;5050623;28;20527;-92
2023/01/30 03:49:44;;;;;;;17.70;10.60;;;6.60;99.90;;;;;;5054060;28;20524;-92
2023/01/30 03:52:10;;;;;;;19.98;11.82;;;6.50;99.90;;;;;;5040479;28;20115;-93
2023/01/30 03:54:35;;;;;;;26.85;12.55;;;6.50;99.90;;;;;;5052477;28;20433;-92
2023/01/30 03:57:01;;;;;;;19.27;10.80;;;6.50;99.90;;;;;;5055972;28;20116;-91
2023/01/30 03:59:26;;;;;;;25.77;12.52;;;6.60;99.90;;;;;;5053839;28;20135;-92
2023/01/30 04:01:52;;;;;;;17.02;11.23;;;6.60;99.90;;;;;;5052857;28;20044;-90
2023/01/30 04:04:17;;;;;;;18.85;10.15;;;6.60;99.90;;;;;;5055310;28;20079;-93
2023/01/30 04:06:43;;;;;;;19.05;11.20;;;6.60;99.90;;;;;;5057086;28;20086;-90
2023/01/30 04:09:09;;;;;;;20.95;11.73;;;6.60;99.90;;;;;;5050179;28;20028;-90
2023/01/30 04:11:34;;;;;;;17.70;11.10;;;6.50;99.90;;;;;;5054588;28;20028;-90
2023/01/30 04:14:00;;;;;;;27.27;11.77;;;6.60;99.90;;;;;;5022491;28;20054;-90
2023/01/30 04:16:26;;;;;;;19.75;11.68;;;6.60;99.90;;;;;;5022917;28;20030;-90
2023/01/30 04:18:52;;;;;;;18.98;10.30;;;6.60;99.90;;;;;;5029740;28;20037;-89
2023/01/30 04:21:17;;;;;;;16.45;9.88;;;6.60;99.90;;;;;;5034702;28;20053;-89
2023/01/30 04:23:43;;;;;;;24.13;11.77;;;6.60;99.90;;;;;;5032686;28;20571;-90
2023/01/30 04:26:09;;;;;;;20.65;10.40;;;6.60;99.90;;;;;;5033289;28;20026;-89
2023/01/30 04:28:35;;;;;;;20.95;10.73;;;6.70;99.90;;;;;;5036461;28;20021;-90
2023/01/30 04:31:01;;;;;;;21.38;10.82;;;6.70;99.90;;;;;;5029739;28;20073;-89
2023/01/30 04:33:27;;;;;;;26.40;10.88;;;6.70;99.90;;;;;;5026703;28;20511;-90
2023/01/30 04:35:54;;;;;;;27.17;10.32;;;6.70;99.90;;;;;;5033170;28;20026;-92
2023/01/30 04:38:21;;;;;;;24.35;10.07;;;6.70;99.90;;;;;;5028280;28;20080;-91
2023/01/30 04:40:47;;;;;;;17.40;8.88;;;6.70;99.90;;;;;;5025190;28;20027;-90
2023/01/30 04:43:13;;;;;;;20.45;9.13;;;6.80;99.90;;;;;;5029148;28;20097;-90
2023/01/30 04:45:42;;;;;;;19.00;8.70;;;6.80;99.90;;;;;;5029105;28;20109;-91
2023/01/30 04:48:07;;;;;;;16.83;9.75;;;6.80;99.90;;;;;;5042311;28;21768;-90
2023/01/30 04:50:33;;;;;;;26.10;11.25;;;6.80;99.90;;;;;;5042186;28;20053;-90
2023/01/30 04:52:59;;;;;;;21.80;9.57;;;6.90;99.90;;;;;;5037403;28;20025;-90
2023/01/30 04:55:24;;;;;;;25.17;9.85;;;6.80;99.90;;;;;;5040742;28;20022;-90
2023/01/30 04:57:50;;;;;;;23.02;9.35;;;6.90;99.90;;;;;;5021018;28;20037;-90
2023/01/30 05:00:16;;;;;;;21.75;9.18;;;6.90;99.90;;;;;;5027008;28;20029;-90
2023/01/30 05:02:41;;;;;;;22.30;8.63;;;6.90;99.90;;;;;;5024170;28;20021;-89
2023/01/30 05:05:07;;;;;;;20.85;9.02;;;6.90;99.90;;;;;;5023617;28;20022;-90
2023/01/30 05:07:33;;;;;;;22.08;7.78;;;6.90;99.90;;;;;;5025036;28;20481;-90
2023/01/30 05:09:58;;;;;;;14.07;6.15;;;6.90;99.90;;;;;;5041819;28;20034;-90
2023/01/30 05:12:24;;;;;;;23.60;7.97;;;6.90;99.90;;;;;;5028007;28;20074;-89
2023/01/30 05:14:49;;;;;;;30.33;8.57;;;7.00;99.90;;;;;;5045306;28;20030;-90
2023/01/30 05:17:15;;;;;;;17.08;6.57;;;7.00;99.90;;;;;;5042297;28;20036;-90
2023/01/30 05:19:40;;;;;;;18.25;7.18;;;7.10;99.90;;;;;;5047532;28;20052;-90
2023/01/30 05:22:06;;;;;;;15.60;6.30;;;7.10;99.90;;;;;;5045615;28;20028;-90
2023/01/30 05:24:31;;;;;;;15.13;6.55;;;7.00;99.90;;;;;;5043951;28;20021;-90
2023/01/30 05:26:57;;;;;;;19.45;7.30;;;7.10;99.90;;;;;;5047958;28;20035;-90
2023/01/30 05:29:23;;;;;;;18.70;7.90;;;7.10;99.90;;;;;;5045565;28;20025;-90
2023/01/30 05:31:48;;;;;;;21.08;7.35;;;7.10;99.90;;;;;;5044964;28;20485;-90
2023/01/30 05:34:14;;;;;;;20.48;7.18;;;7.10;99.90;;;;;;5045794;28;20481;-90
2023/01/30 05:36:39;;;;;;;15.73;5.88;;;7.10;99.90;;;;;;5055759;28;20158;-90
2023/01/30 05:39:05;;;;;;;21.00;6.20;;;7.10;99.90;;;;;;5045434;28;20143;-87
2023/01/30 05:41:30;;;;;;;17.10;5.47;;;7.10;99.90;;;;;;5043267;28;20025;-89
2023/01/30 05:43:56;;;;;;;22.17;5.90;;;7.20;99.90;;;;;;5043189;28;20037;-91
2023/01/30 05:46:21;;;;;;;17.67;6.22;;;7.20;99.90;;;;;;5046834;28;20017;-90
2023/01/30 05:48:47;;;;;;;11.90;4.55;;;7.10;99.90;;;;;;5045111;28;20032;-90
2023/01/30 05:51:21;;;;;;;17.80;6.00;;;7.20;99.90;;;;;;5043058;28;20025;-91
2023/01/30 05:53:47;;;;;;;15.98;4.70;;;7.20;99.90;;;;;;5045012;28;20025;-89
2023/01/30 05:56:13;;;;;;;13.05;4.30;;;7.20;99.90;;;;;;5043204;28;20108;-90
2023/01/30 05:58:38;;;;;;;15.10;3.35;;;7.20;99.90;;;;;;5047269;28;20037;-90
2023/01/30 06:01:08;;;;;;;15.63;2.92;;;7.30;99.90;;;;;;5044961;28;20032;-91
2023/01/30 06:03:34;;;;;;;17.92;3.10;;;7.30;99.90;;;;;;5037472;28;20033;-91
2023/01/30 06:06:04;;;;;;;7.85;2.08;;;7.30;99.90;;;;;;5047872;28;20043;-91
2023/01/30 06:08:30;;;;;;;9.52;1.75;;;7.30;99.90;;;;;;5054461;28;20028;-90
2023/01/30 06:11:01;;;;;;;10.43;1.33;;;7.30;99.90;;;;;;5050935;28;20033;-91
2023/01/30 06:13:27;;;;;;;17.67;1.77;;;7.30;99.90;;;;;;5047216;28;20124;-90
2023/01/30 06:15:52;;;;;;;16.50;1.40;;;7.30;99.90;;;;;;5040410;28;20059;-91
2023/01/30 06:18:18;;;;;;;9.07;1.52;;;7.30;99.90;;;;;;5046651;28;20501;-90
2023/01/30 06:20:48;;;;;;;15.50;1.23;;;7.30;99.90;;;;;;5046019;28;20032;-90
2023/01/30 06:23:14;;;;;;;11.70;0.90;;;7.30;99.90;;;;;;5044021;28;20032;-90
2023/01/30 06:25:44;;;;;;;10.90;0.90;;;7.30;99.90;;;;;;5045929;28;20086;-91
2023/01/30 06:28:10;;;;;;;13.15;1.42;;;7.30;99.90;;;;;;5045786;28;20575;-90
2023/01/30 06:30:35;;;;;;;11.57;1.23;;;7.20;99.90;;;;;;5046090;28;20028;-89
2023/01/30 06:33:01;;;;;;;9.88;0.80;;;7.20;99.90;;;;;;5045617;28;20397;-89
2023/01/30 06:35:26;;;;;;;12.07;1.17;;;7.10;99.90;;;;;;5047440;28;20124;-90
2023/01/30 06:37:52;;;;;;;17.85;1.67;;;7.10;99.90;;;;;;5044473;28;20021;-90
2023/01/30 06:40:17;;;;;;;10.02;1.23;;;7.00;99.90;;;;;;5044781;28;20022;-91
2023/01/30 06:42:47;;;;;;;19.13;1.45;;;7.00;99.90;;;;;;5043399;28;20029;-92
2023/01/30 06:45:14;;;;;;;15.60;0.90;;;6.90;99.90;;;;;;5045469;28;20239;-91
2023/01/30 06:47:45;;;;;;;10.35;1.10;;;6.80;99.90;;;;;;5041997;28;20108;-91
2023/01/30 06:50:12;;;;;;;19.00;1.98;;;6.80;99.90;;;;;;5045081;28;20481;-92
2023/01/30 06:52:46;;;;;;;10.73;1.42;;;6.70;99.90;;;;;;5041687;28;20063;-91
2023/01/30 06:55:17;;;;;;;16.70;1.52;;;6.70;99.90;;;;;;5063602;28;20074;-91
2023/01/30 06:57:43;;;;;;;9.27;0.90;;;6.70;99.90;;;;;;5056275;28;20240;-92
2023/01/30 07:00:13;;;;;;;10.80;1.77;;;6.60;99.90;;;;;;5045174;28;20041;-92
2023/01/30 07:02:38;;;;;;;14.88;1.30;;;6.60;99.90;;;;;;5043800;28;20025;-92
2023/01/30 07:05:06;;;;;;;16.55;1.00;;;6.50;99.90;;;;;;5052754;28;20059;-92
2023/01/30 07:07:32;;;;;;;8.45;1.38;;;6.50;99.90;;;;;;5033747;28;20108;-92
2023/01/30 07:09:58;;;;;;;9.82;1.02;;;6.40;99.90;;;;;;5053021;28;20082;-91
2023/01/30 07:12:25;;;;;;;12.57;1.35;;;6.40;99.90;;;;;;5052592;28;20045;-92
2023/01/30 07:14:52;;;;;;;16.80;1.17;;;6.40;99.90;;;;;;5052176;28;20033;-92
2023/01/30 07:17:18;;;;;;;13.25;1.40;;;6.30;99.90;;;;;;5048488;28;20409;-91
2023/01/30 07:19:44;;;;;;;8.60;1.05;;;6.30;99.90;;;;;;5047234;28;20056;-92
2023/01/30 07:22:10;;;;;;;13.43;1.40;;;6.20;99.90;;;;;;5043788;28;20017;-92
2023/01/30 07:24:37;;;;;;;15.35;1.30;;;6.30;99.90;;;;;;5053440;28;20025;-92
2023/01/30 07:27:02;;;;;;;8.63;0.73;;;6.20;99.90;;;;;;5052700;28;20025;-91
2023/01/30 07:29:28;;;;;;;12.57;1.27;;;6.20;99.90;;;;;;5065433;28;20041;-92
2023/01/30 07:31:53;;;;;;;17.45;1.65;;;6.20;99.90;;;;;;5038499;28;20040;-91
2023/01/30 07:34:19;;;;;;;23.92;1.83;;;6.10;99.90;;;;;;5042136;28;20017;-91
2023/01/30 07:36:44;;;;;;;16.63;1.30;;;6.10;99.90;;;;;;5046331;28;20053;-91
2023/01/30 07:39:10;;;;;;;13.82;1.65;;;6.10;99.90;;;;;;5040580;28;20033;-91
2023/01/30 07:41:35;;;;;;;13.70;1.10;;;6.00;99.90;;;;;;5052839;28;20021;-90
2023/01/30 07:44:01;;;;;;;10.05;1.00;;;6.00;99.90;;;;;;5048172;28;20032;-91
2023/01/30 07:46:33;;;;;;;19.58;1.20;;;6.00;99.90;;;;;;5052926;28;20107;-91
2023/01/30 07:49:03;;;;;;;21.20;2.22;;;6.00;99.90;;;;;;5047722;28;20086;-92
2023/01/30 07:51:29;;;;;;;14.23;1.00;;;5.90;99.90;;;;;;5061830;28;20484;-92
2023/01/30 07:53:54;;;;;;;9.43;1.80;;;5.90;99.90;;;;;;5050925;28;20037;-91
2023/01/30 07:56:23;;;;;;;21.25;2.20;;;5.90;99.90;;;;;;5052552;28;20033;-92
2023/01/30 07:58:49;;;;;;;7.45;0.95;;;5.90;99.90;;;;;;5052925;28;20037;-91
2023/01/30 08:01:16;;;;;;;17.77;2.05;;;5.90;99.90;;;;;;5045978;28;20124;-91
2023/01/30 08:03:43;;;;;;;14.27;1.70;;;5.90;99.90;;;;;;5046726;28;20021;-92
2023/01/30 08:06:08;;;;;;;21.85;1.60;;;6.00;99.90;;;;;;5054286;28;20037;-91
2023/01/30 08:08:34;;;;;;;22.83;1.98;;;6.00;99.90;;;;;;5050745;28;20024;-91
2023/01/30 08:11:00;;;;;;;23.85;2.20;;;6.00;99.90;;;;;;5049297;28;20033;-93
2023/01/30 08:13:25;;;;;;;17.67;2.25;;;6.00;99.90;;;;;;5044996;28;20037;-92
2023/01/30 08:15:51;;;;;;;14.38;1.50;;;6.00;99.90;;;;;;5046962;28;20030;-92
2023/01/30 08:18:16;;;;;;;15.90;1.10;;;6.00;99.90;;;;;;5042037;28;20044;-92
2023/01/30 08:20:42;;;;;;;11.13;1.35;;;6.00;99.90;;;;;;5049179;28;20025;-92
2023/01/30 08:23:08;;;;;;;19.70;1.48;;;6.00;99.90;;;;;;5050129;28;20481;-91
2023/01/30 08:25:34;;;;;;;15.93;1.98;;;6.10;99.90;;;;;;5050612;28;20025;-91
2023/01/30 08:28:01;;;;;;;18.88;1.63;;;6.10;99.90;;;;;;5042902;28;20103;-93
2023/01/30 08:30:29;;;;;;;21.92;2.38;;;6.10;99.90;;;;;;5052777;28;20084;-91
2023/01/30 08:32:55;;;;;;;19.15;1.70;;;6.20;99.90;;;;;;5046481;28;20033;-91
2023/01/30 08:35:21;;;;;;;23.48;1.98;;;6.20;99.90;;;;;;5046988;28;20469;-90
2023/01/30 08:37:46;;;;;;;20.20;2.47;;;6.10;99.90;;;;;;5049380;28;20057;-92
2023/01/30 08:40:12;;;;;;;17.33;1.58;;;6.20;99.90;;;;;;5048704;28;20049;-91
2023/01/30 08:42:38;;;;;;;13.18;0.82;;;6.20;99.90;;;;;;5044288;28;20040;-90
2023/01/30 08:45:03;;;;;;;16.45;2.08;;;6.20;99.90;;;;;;5049557;28;20029;-91
2023/01/30 08:47:30;;;;;;;13.38;1.45;;;6.30;99.90;;;;;;5047394;28;20037;-91
2023/01/30 08:49:55;;;;;;;13.85;1.13;;;6.30;99.90;;;;;;5045794;28;20033;-91
2023/01/30 08:52:21;;;;;;;16.13;1.00;;;6.30;99.90;;;;;;5042494;28;20517;-90
2023/01/30 08:54:46;;;;;;;17.25;1.33;;;6.40;99.90;;;;;;5046872;28;20441;-88
2023/01/30 08:57:13;;;;;;;14.10;1.83;;;6.30;99.90;;;;;;5049541;28;20040;-89
2023/01/30 08:59:39;;;;;;;15.73;1.10;;;6.40;99.90;;;;;;5046919;28;20128;-90
2023/01/30 09:02:07;;;;;;;20.98;2.28;;;6.40;99.90;;;;;;5039445;28;20059;-90
2023/01/30 09:04:33;;;;;;;18.38;1.38;;;6.50;99.90;;;;;;5048461;28;20029;-90
2023/01/30 09:06:58;;;;;;;20.17;1.42;;;6.50;99.90;;;;;;5047782;28;20039;-90
2023/01/30 09:09:24;;;;;;;18.67;1.40;;;6.60;99.90;;;;;;5048023;28;20025;-92
2023/01/30 09:11:49;;;;;;;18.27;1.65;;;6.80;99.90;;;;;;5048762;28;20031;-90
2023/01/30 09:14:18;;;;;;;14.65;1.17;;;6.90;99.90;;;;;;5047441;28;20140;-92
2023/01/30 09:16:54;;;;;;;14.98;1.17;;;7.00;99.90;;;;;;5049328;28;20025;-92
2023/01/30 09:19:26;;;;;;;13.80;1.08;;;7.10;99.90;;;;;;5061670;28;20409;-92
2023/01/30 09:21:52;;;;;;;;;;;7.20;99.90;;;;;;5049481;28;20025;-91
2023/01/30 09:24:25;;;;;;;14.55;1.55;;;7.20;99.90;;;;;;5048762;28;19962;-92
2023/01/30 09:26:52;;;;;;;;;;;7.20;99.90;;;;;;5053985;28;20033;-93
2023/01/30 09:29:18;;;;;;;18.08;1.30;;;7.20;99.90;;;;;;5055320;28;20008;-91
2023/01/30 09:31:43;;;;;;;16.70;1.48;;;7.30;99.90;;;;;;5054177;28;20067;-92
2023/01/30 09:34:09;;;;;;;12.02;1.08;;;7.20;99.90;;;;;;5040376;28;20093;-90
2023/01/30 09:36:34;;;;;;;12.18;1.17;;;7.30;99.90;;;;;;5034003;28;20335;-91
2023/01/30 09:39:00;;;;;;;13.35;1.33;;;7.30;99.90;;;;;;5041329;28;20044;-92
2023/01/30 09:41:45;;;;;;;12.57;1.17;;;7.30;99.90;;;;;;5052941;28;20469;-91
2023/01/30 09:44:52;;;;;;;15.93;1.00;;;7.40;99.90;;;;;;5048600;28;20488;-91
2023/01/30 09:47:37;;;;;;;13.73;0.93;;;7.40;99.90;;;;;;5011304;28;20072;-88
2023/01/30 09:50:21;;;;;;;19.40;2.05;;;7.40;99.90;;;;;;5053165;28;20044;-90
2023/01/30 09:53:04;;;;;;;12.48;1.10;;;7.40;99.90;;;;;;5049998;28;20096;-92
2023/01/30 09:55:32;;;;;;;17.98;1.70;;;7.50;99.90;;;;;;5043239;28;20028;-92
2023/01/30 09:57:59;;;;;;;14.43;1.13;;;7.50;99.90;;;;;;5047733;28;20032;-90
2023/01/30 10:00:43;;;;;;;9.07;1.25;;;7.50;99.90;;;;;;5053104;28;20052;-91
2023/01/30 10:03:12;;;;;;;13.00;1.40;;;7.50;99.90;;;;;;5046776;28;20036;-95
2023/01/30 10:06:01;;;;;;;15.27;1.55;;;7.60;99.90;;;;;;5042512;28;20032;-92
2023/01/30 10:08:55;;;;;;;9.90;0.85;;;7.60;99.90;;;;;;5049073;28;20036;-91
2023/01/30 10:11:50;;;;;;;14.52;1.58;;;7.60;99.90;;;;;;5066977;28;20087;-92
2023/01/30 10:14:37;;;;;;;16.55;1.90;;;7.70;99.90;;;;;;5048498;28;20068;-92
2023/01/30 10:17:27;;;;;;;16.77;1.15;;;7.70;99.90;;;;;;5045191;28;20037;-92
2023/01/30 10:20:31;;;;;;;10.48;1.02;;;7.80;99.90;;;;;;5053990;28;20044;-91
2023/01/30 10:23:29;;;;;;;16.23;1.80;;;7.80;99.90;;;;;;5050179;28;20037;-91
2023/01/30 10:26:00;;;;;;;11.02;0.90;;;7.80;99.90;;;;;;5052021;28;20030;-89
2023/01/30 10:28:28;;;;;;;16.73;1.35;;;7.80;99.90;;;;;;5053735;28;20457;-92
2023/01/30 10:31:10;;;;;;;19.13;1.02;;;7.90;99.90;;;;;;5051150;28;20036;-90
2023/01/30 10:33:56;;;;;;;12.63;2.10;;;7.90;99.90;;;;;;5050293;28;20124;-92
2023/01/30 10:36:42;;;;;;;9.82;1.33;;;7.90;99.90;;;;;;5045805;28;20479;-92
2023/01/30 10:39:24;;;;;;;11.32;1.25;;;7.90;99.90;;;;;;5045674;28;20033;-91
2023/01/30 10:42:18;;;;;;;14.98;1.25;;;7.90;99.90;;;;;;5051076;28;20047;-92
2023/01/30 10:44:44;;;;;;;15.63;1.15;;;7.90;99.90;;;;;;5053036;28;20032;-92
2023/01/30 10:47:29;;;;;;;19.15;1.33;;;7.90;99.90;;;;;;5053829;28;20078;-91
2023/01/30 10:50:04;;;;;;;9.68;0.75;;;7.90;99.90;;;;;;5044850;28;20793;-91
2023/01/30 10:52:57;;;;;;;12.02;1.58;;;7.90;99.90;;;;;;5043741;28;20471;-92
2023/01/30 10:55:47;;;;;;;10.00;0.75;;;7.90;99.90;;;;;;5045619;28;20064;-92
2023/01/30 10:58:33;;;;;;;15.70;1.58;;;7.90;99.90;;;;;;5048145;28;20025;-90
2023/01/30 11:01:02;;;;;;;18.15;1.55;;;7.90;99.90;;;;;;5043718;28;20024;-92
2023/01/30 11:03:40;;;;;;;12.82;1.25;;;8.00;99.90;;;;;;5043976;28;20035;-92
2023/01/30 11:06:22;;;;;;;10.73;1.55;;;8.00;99.90;;;;;;5040353;28;20029;-89
2023/01/30 11:08:48;;;;;;;13.57;1.07;;;8.00;99.90;;;;;;5036484;28;20075;-92
2023/01/30 11:11:51;;;;;;;12.52;1.40;;;8.10;99.90;;;;;;5041256;28;20485;-91
2023/01/30 11:14:16;;;;;;;12.10;1.35;;;8.20;99.90;;;;;;5044604;28;20087;-92
2023/01/30 11:16:53;;;;;;;13.70;1.65;;;8.20;99.90;;;;;;5045259;28;20026;-91
2023/01/30 11:19:22;;;;;;;16.88;2.53;;;8.20;99.90;;;;;;5033675;28;20060;-91
2023/01/30 11:21:51;;;;;;;17.45;1.77;;;8.20;99.90;;;;;;5067901;28;20032;-91
2023/01/30 11:24:21;;;;;;;16.45;1.23;;;8.20;99.90;;;;;;5050834;28;20033;-92
2023/01/30 11:26:47;;;;;;;17.25;1.17;;;8.20;99.90;;;;;;5052165;28;20021;-92
2023/01/30 11:29:27;;;;;;;11.40;1.20;;;8.20;99.90;;;;;;5052929;28;20056;-90
2023/01/30 11:31:53;;;;;;;20.88;1.83;;;8.20;99.90;;;;;;5052144;28;20441;-91
2023/01/30 11:34:21;;;;;;;11.57;0.80;;;8.30;99.90;;;;;;5048181;28;20029;-90
2023/01/30 11:36:47;;;;;;;16.75;1.45;;;8.30;99.90;;;;;;5052677;28;20032;-91
2023/01/30 11:39:17;;;;;;;13.77;1.42;;;8.20;99.90;;;;;;5053749;28;20033;-91
2023/01/30 11:41:56;;;;;;;15.70;2.25;;;8.30;99.90;;;;;;5056047;28;20025;-90
2023/01/30 11:44:33;;;;;;;15.13;1.73;;;8.30;99.90;;;;;;5055560;28;20032;-90
2023/01/30 11:47:21;;;;;;;16.50;1.42;;;8.30;99.90;;;;;;5051808;28;20449;-90
2023/01/30 11:49:51;;;;;;;10.77;1.00;;;8.20;99.90;;;;;;5034831;28;20033;-90
2023/01/30 11:52:26;;;;;;;14.60;1.88;;;8.20;99.90;;;;;;5053385;28;20025;-89
2023/01/30 11:54:59;;;;;;;19.08;1.73;;;8.30;99.90;;;;;;5055380;28;20021;-90
2023/01/30 11:57:26;;;;;;;17.40;1.58;;;8.30;99.90;;;;;;5055052;28;20071;-90
2023/01/30 11:59:57;;;;;;;16.95;1.88;;;8.40;99.90;;;;;;5054568;28;20132;-90
2023/01/30 12:02:36;;;;;;;17.35;1.83;;;8.30;99.90;;;;;;5054701;28;20071;-91
2023/01/30 12:05:07;;;;;;;14.88;1.60;;;8.30;99.90;;;;;;5055391;28;20025;-90
2023/01/30 12:07:35;;;;;;;18.58;1.35;;;8.30;99.90;;;;;;5055607;28;20029;-90
2023/01/30 12:10:15;;;;;;;17.35;2.40;;;8.40;99.90;;;;;;5055156;28;20036;-91
2023/01/30 12:12:48;;;;;;;17.00;1.35;;;8.40;99.90;;;;;;5041297;28;20040;-91
2023/01/30 12:15:26;;;;;;;16.40;1.67;;;8.50;99.90;;;;;;5052697;28;20060;-90
2023/01/30 12:18:17;;;;;;;16.23;1.48;;;8.50;99.90;;;;;;5051527;28;20056;-91
2023/01/30 12:21:00;;;;;;;9.80;1.67;;;8.60;99.90;;;;;;5043256;28;20068;-91
2023/01/30 12:23:43;;;;;;;12.15;1.30;;;8.50;99.90;;;;;;5045641;28;20127;-90
2023/01/30 12:26:18;;;;;;;21.98;2.03;;;8.40;99.90;;;;;;5053198;28;20028;-90
2023/01/30 12:28:55;;;;;;;15.07;1.95;;;8.50;99.90;;;;;;5055687;28;20021;-90
2023/01/30 12:31:40;;;;;;;17.17;1.77;;;8.60;99.90;;;;;;5052104;28;20033;-90
2023/01/30 12:34:08;;;;;;;15.60;1.90;;;8.70;99.90;;;;;;5050887;28;20028;-90
2023/01/30 12:37:19;;;;;;;16.42;2.13;;;8.80;99.90;;;;;;5057087;28;20083;-90
2023/01/30 12:40:27;;;;;;;17.85;1.70;;;8.70;99.90;;;;;;5055206;28;20090;-90
2023/01/30 12:43:08;;;;;;;16.08;2.05;;;8.70;99.90;;;;;;5046893;28;20044;-90
2023/01/30 12:45:39;;;;;;;20.55;1.45;;;8.70;99.90;;;;;;5051515;28;20052;-90
2023/01/30 12:48:21;;;;;;;16.50;1.58;;;8.70;99.90;;;;;;5051402;28;20029;-91
2023/01/30 12:51:22;;;;;;;17.83;1.73;;;8.60;99.90;;;;;;5052513;28;20053;-91
2023/01/30 12:53:57;;;;;;;17.58;1.88;;;8.60;99.90;;;;;;5052043;28;20410;-90
2023/01/30 12:56:32;;;;;;;14.68;1.23;;;8.50;99.90;;;;;;5052132;28;20040;-90
2023/01/30 12:59:19;;;;;;;22.15;2.05;;;8.50;99.90;;;;;;5053744;28;20036;-90
2023/01/30 13:02:03;;;;;;;13.85;1.23;;;8.50;99.90;;;;;;5047200;28;20035;-90
2023/01/30 13:05:05;;;;;;;20.85;2.33;;;8.40;99.90;;;;;;5053132;28;20025;-90
2023/01/30 13:07:39;;;;;;;20.13;1.98;;;8.50;99.90;;;;;;5043561;28;20481;-92
2023/01/30 13:10:19;;;;;;;18.15;2.47;;;8.60;99.90;;;;;;5038140;28;20021;-90
2023/01/30 13:13:03;;;;;;;16.50;1.92;;;8.70;99.90;;;;;;5046754;28;20088;-91
2023/01/30 13:15:40;;;;;;;12.15;1.13;;;8.60;99.90;;;;;;5050858;28;20146;-91